Terminal Aerodrome Forecast
Issued by NWS Tiyan, Guam

Home | Current Version | Previous Version | Text Only | Print | Product List | Glossary On
Versions: 1 2 3 4 5 6 7 8 9 10 11 12 13 14 15 16
000
FTPQ31 PGUM 170538
TAFGUM
TAF
PGUM 170538Z 1706/1812 08016G22KT P6SM VCSH SCT018 BKN140
     FM170900 08006KT P6SM VCSH FEW018 SCT040 SCT140 WS020/09026KT
     FM172200 08016G22KT P6SM VCSH SCT018=

USA.gov is the U.S. government's official web portal to all federal, state and local government web resources and services.